Time;durP1;ratioP1;P1;durP2;ratioP2;P2;SDS_P1;SDS_P2;PMS_P1;PMS_P2;Temp;Humidity;BMP_temperature;BMP_pressure;BME280_temperature;BME280_humidity;BME280_pressure;Samples;Min_cycle;Max_cycle;Signal;HPM_P1;HPM_P2
2022/04/17 00:01:10;;;;;;;12.23;8.53;;;;;;;11.46;100.00;62030.25;5092632;28;20690;-73
2022/04/17 00:03:38;;;;;;;10.03;7.80;;;;;;;11.48;100.00;62027.28;5092632;28;20211;-72
2022/04/17 00:06:06;;;;;;;12.47;8.43;;;;;;;11.41;100.00;62024.91;5092447;28;20670;-72
2022/04/17 00:08:33;;;;;;;14.20;8.53;;;;;;;11.39;100.00;62023.28;5092659;28;20200;-73
2022/04/17 00:11:02;;;;;;;9.57;8.40;;;;;;;11.49;100.00;62030.94;5092476;28;20199;-73
2022/04/17 00:13:29;;;;;;;16.27;7.60;;;;;;;11.46;100.00;62027.69;5092424;28;20279;-72
2022/04/17 00:16:00;;;;;;;12.80;8.10;;;;;;;11.37;100.00;62020.63;5092482;28;20219;-72
2022/04/17 00:18:27;;;;;;;11.37;8.20;;;;;;;11.36;100.00;62014.44;5092835;28;20192;-72
2022/04/17 00:20:54;;;;;;;9.83;8.07;;;;;;;11.19;100.00;62001.31;5091932;28;20211;-73
2022/04/17 00:23:20;;;;;;;12.13;8.33;;;;;;;11.39;100.00;62015.09;5092169;28;20637;-73
2022/04/17 00:25:47;;;;;;;10.53;8.67;;;;;;;11.47;100.00;62029.31;5092133;28;20227;-72
2022/04/17 00:28:15;;;;;;;11.47;8.53;;;;;;;11.40;100.00;62019.25;5092057;28;20323;-73
2022/04/17 00:30:42;;;;;;;12.47;8.60;;;;;;;11.40;100.00;62018.72;5092208;28;20662;-72
2022/04/17 00:33:09;;;;;;;9.73;8.10;;;;;;;11.06;100.00;61993.00;5092240;28;20260;-72
2022/04/17 00:35:36;;;;;;;10.93;8.33;;;;;;;11.38;100.00;62019.13;5092038;28;20247;-73
2022/04/17 00:38:04;;;;;;;10.87;8.33;;;;;;;11.37;100.00;62015.50;5092029;28;20223;-73
2022/04/17 00:40:31;;;;;;;11.90;9.17;;;;;;;11.40;100.00;62023.81;5092025;28;20202;-71
2022/04/17 00:42:59;;;;;;;12.10;9.67;;;;;;;11.27;100.00;62004.78;5091913;28;20540;-72
2022/04/17 00:45:27;;;;;;;13.17;8.57;;;;;;;11.22;100.00;62004.53;5092396;28;20288;-72
2022/04/17 00:47:54;;;;;;;11.50;9.10;;;;;;;11.13;100.00;61987.25;5092023;28;20195;-72
2022/04/17 00:50:21;;;;;;;12.27;8.70;;;;;;;10.97;100.00;61973.69;5091927;28;20248;-73
2022/04/17 00:52:48;;;;;;;12.60;8.87;;;;;;;11.12;100.00;61991.78;5091870;28;20200;-74
2022/04/17 00:55:16;;;;;;;10.20;8.40;;;;;;;11.01;100.00;61980.53;5091895;28;20204;-73
2022/04/17 00:57:43;;;;;;;11.50;8.40;;;;;;;10.99;100.00;61975.84;5091918;28;20233;-72
2022/04/17 01:00:11;;;;;;;10.87;8.77;;;;;;;10.97;100.00;61973.16;5091753;28;20734;-72
2022/04/17 01:02:39;;;;;;;14.53;9.53;;;;;;;10.90;100.00;61966.22;5091933;28;20242;-72
2022/04/17 01:05:07;;;;;;;13.03;8.87;;;;;;;10.87;100.00;61965.53;5091616;28;20200;-72
2022/04/17 01:07:34;;;;;;;13.47;9.30;;;;;;;10.77;100.00;61952.28;5091644;28;20283;-73
2022/04/17 01:10:02;;;;;;;15.57;9.30;;;;;;;10.90;100.00;61968.75;5091743;28;20272;-71
2022/04/17 01:12:29;;;;;;;18.17;9.27;;;;;;;10.77;100.00;61957.38;5091578;28;20214;-72
2022/04/17 01:14:56;;;;;;;13.50;9.63;;;;;;;10.03;100.00;61875.53;5091566;28;20207;-72
2022/04/17 01:17:23;;;;;;;13.10;9.20;;;;;;;10.61;100.00;61935.13;5091792;28;20272;-73
2022/04/17 01:19:51;;;;;;;12.17;9.40;;;;;;;10.59;100.00;61935.53;5091345;28;20200;-73
2022/04/17 01:22:19;;;;;;;13.60;8.93;;;;;;;10.52;100.00;61928.03;5091429;28;20199;-72
2022/04/17 01:27:32;;;;;;;12.97;9.13;;;;;;;10.50;100.00;61925.34;5091633;28;20249;-73
2022/04/17 01:29:58;;;;;;;12.77;9.57;;;;;;;10.50;100.00;61923.34;5091456;28;20264;-73
2022/04/17 01:32:25;;;;;;;14.63;8.93;;;;;;;10.43;100.00;61917.84;5091446;28;20203;-73
2022/04/17 01:34:52;;;;;;;13.37;10.03;;;;;;;10.41;100.00;61916.25;5095848;28;20653;-72
2022/04/17 01:37:20;;;;;;;14.97;9.83;;;;;;;9.58;100.00;61827.88;5095380;28;20195;-73
2022/04/17 01:39:47;;;;;;;16.10;10.37;;;;;;;9.73;100.00;61841.41;5095535;28;20272;-73
2022/04/17 01:42:16;;;;;;;16.57;9.03;;;;;;;10.45;100.00;61923.06;5095418;28;20191;-72
2022/04/17 01:44:44;;;;;;;13.93;9.63;;;;;;;10.43;100.00;61915.84;5095445;28;20191;-73
2022/04/17 01:47:11;;;;;;;13.77;9.30;;;;;;;10.43;100.00;61915.84;5086481;28;20318;-72
2022/04/17 01:49:38;;;;;;;12.10;9.50;;;;;;;10.44;100.00;61916.38;5095160;28;20633;-73
2022/04/17 01:52:05;;;;;;;14.33;9.60;;;;;;;10.41;100.00;61913.69;5095264;28;20265;-73
2022/04/17 01:54:33;;;;;;;13.00;9.00;;;;;;;10.48;100.00;61920.66;5095064;28;20200;-72
2022/04/17 01:57:00;;;;;;;14.63;9.57;;;;;;;10.38;100.00;61910.50;5095104;28;20204;-72
2022/04/17 01:59:27;;;;;;;11.67;9.30;;;;;;;10.31;100.00;61905.53;5095133;28;20729;-73
2022/04/17 02:01:54;;;;;;;16.03;9.63;;;;;;;9.90;100.00;61859.59;5095049;28;20195;-73
2022/04/17 02:04:22;;;;;;;13.17;9.33;;;;;;;10.21;100.00;61892.28;5094956;28;20203;-73
2022/04/17 02:06:49;;;;;;;14.93;9.47;;;;;;;10.11;100.00;61881.56;5095973;28;20235;-72
2022/04/17 02:09:16;;;;;;;14.17;8.70;;;;;;;9.84;100.00;61852.66;5097647;28;20199;-73
2022/04/17 02:11:45;;;;;;;12.27;8.80;;;;;;;10.23;100.00;61891.34;5094895;28;20200;-73
2022/04/17 02:14:13;;;;;;;13.50;8.77;;;;;;;10.27;100.00;61898.16;5093512;28;20598;-73
2022/04/17 02:16:40;;;;;;;12.03;8.57;;;;;;;10.18;100.00;61894.69;5094755;28;20243;-72
2022/04/17 02:19:07;;;;;;;14.07;9.50;;;;;;;10.10;100.00;61883.06;5094898;28;20250;-72
2022/04/17 02:21:34;;;;;;;14.00;9.37;;;;;;;10.11;100.00;61882.13;5094656;28;20667;-72
2022/04/17 02:24:02;;;;;;;12.37;8.70;;;;;;;9.98;100.00;61870.19;5094435;28;20264;-73
2022/04/17 02:26:29;;;;;;;12.00;8.77;;;;;;;10.08;100.00;61880.91;5094436;28;20280;-73
2022/04/17 02:28:58;;;;;;;12.70;9.53;;;;;;;7.83;100.00;61638.75;5094602;28;20211;-73
2022/04/17 02:31:26;;;;;;;12.20;9.50;;;;;;;10.02;100.00;61871.94;5094724;28;20196;-74
2022/04/17 02:33:53;;;;;;;12.27;9.10;;;;;;;10.04;100.00;61879.16;5094499;28;20277;-73
2022/04/17 02:36:21;;;;;;;12.27;9.47;;;;;;;10.13;100.00;61883.72;5094407;28;20199;-72
2022/04/17 02:38:48;;;;;;;16.40;9.90;;;;;;;9.77;100.00;61850.25;5094183;28;20272;-71
2022/04/17 02:41:15;;;;;;;14.37;9.53;;;;;;;9.86;100.00;61857.84;5094200;28;20667;-74
2022/04/17 02:43:42;;;;;;;11.10;8.97;;;;;;;9.96;100.00;61865.50;5093816;28;20195;-72
2022/04/17 02:46:10;;;;;;;15.03;10.10;;;;;;;9.89;100.00;61852.91;5093924;28;20583;-72
2022/04/17 02:48:36;;;;;;;16.50;10.00;;;;;;;10.14;100.00;61884.78;5094051;28;20200;-73
2022/04/17 02:51:03;;;;;;;10.87;8.37;;;;;;;10.11;100.00;61886.66;5094070;28;20204;-73
2022/04/17 02:53:32;;;;;;;11.67;9.13;;;;;;;10.11;100.00;61884.13;5094024;28;20199;-73
2022/04/17 02:55:59;;;;;;;12.00;8.80;;;;;;;10.03;100.00;61873.00;5093612;28;20199;-72
2022/04/17 02:58:26;;;;;;;12.87;9.40;;;;;;;10.06;100.00;61876.22;5094072;28;20195;-73
2022/04/17 03:06:23;;;;;;;12.83;9.37;;;;;;;9.61;100.00;61828.56;5093863;28;20226;-72
2022/04/17 03:08:50;;;;;;;13.20;9.63;;;;;;;9.58;100.00;61829.91;5093830;28;20203;-73
2022/04/17 03:11:17;;;;;;;11.43;8.23;;;;;;;10.10;100.00;61885.59;5093586;28;20199;-73
2022/04/17 03:13:44;;;;;;;14.57;9.50;;;;;;;10.10;100.00;61885.59;5093516;28;20200;-73
2022/04/17 03:16:11;;;;;;;11.73;9.20;;;;;;;10.03;100.00;61873.00;5093530;28;20219;-73
2022/04/17 03:18:41;;;;;;;14.03;8.83;;;;;;;9.99;100.00;61863.63;5093425;28;20666;-73
2022/04/17 03:21:08;;;;;;;12.67;8.83;;;;;;;10.06;100.00;61876.22;5093978;28;20553;-72
2022/04/17 03:23:34;;;;;;;11.73;9.13;;;;;;;10.02;100.00;61874.47;5093092;28;20211;-73
2022/04/17 03:26:02;;;;;;;13.70;9.30;;;;;;;9.99;100.00;61873.78;5093400;28;20200;-72
2022/04/17 03:28:30;;;;;;;11.87;9.07;;;;;;;10.01;100.00;61875.94;5093317;28;20441;-73
2022/04/17 03:30:57;;;;;;;13.23;10.03;;;;;;;10.03;100.00;61876.06;5093125;28;20615;-71
2022/04/17 03:33:23;;;;;;;15.33;9.87;;;;;;;10.08;100.00;61878.34;5093133;28;20200;-74
2022/04/17 03:35:51;;;;;;;17.13;10.67;;;;;;;10.01;100.00;61870.84;5092910;28;20235;-71
2022/04/17 03:38:19;;;;;;;17.93;10.37;;;;;;;10.01;100.00;61865.75;5093550;28;20249;-74
2022/04/17 03:40:47;;;;;;;12.63;9.90;;;;;;;9.99;100.00;61868.69;5093211;28;20196;-74
2022/04/17 03:43:13;;;;;;;19.93;11.03;;;;;;;9.91;100.00;61863.22;5092791;28;20204;-73
2022/04/17 03:45:40;;;;;;;13.13;10.03;;;;;;;9.68;100.00;61830.97;5092997;28;20282;-72
2022/04/17 03:48:08;;;;;;;14.70;9.73;;;;;;;9.72;100.00;61839.81;5092965;28;20296;-74
2022/04/17 03:50:35;;;;;;;17.87;10.83;;;;;;;9.66;100.00;61833.38;5097615;28;20199;-73
2022/04/17 03:53:03;;;;;;;15.70;10.97;;;;;;;9.72;100.00;61840.34;5095398;28;20261;-73
2022/04/17 03:55:30;;;;;;;18.10;11.43;;;;;;;9.72;100.00;61839.81;5092175;28;20191;-74
2022/04/17 03:57:58;;;;;;;13.50;10.40;;;;;;;9.60;100.00;61827.50;5092893;28;20203;-73
2022/04/17 04:00:25;;;;;;;16.03;11.20;;;;;;;9.54;100.00;61820.53;5092728;28;20644;-74
2022/04/17 04:02:53;;;;;;;15.30;11.03;;;;;;;9.61;100.00;61833.13;5092825;28;20207;-74
2022/04/17 04:05:20;;;;;;;12.67;9.50;;;;;;;9.43;100.00;61811.31;5092624;28;20204;-74
2022/04/17 04:07:47;;;;;;;13.57;10.00;;;;;;;9.41;100.00;61806.63;5092619;28;20322;-73
2022/04/17 04:10:16;;;;;;;11.73;9.23;;;;;;;9.43;100.00;61813.84;5092734;28;20196;-72
2022/04/17 04:12:43;;;;;;;13.93;10.47;;;;;;;9.32;100.00;61797.53;5092740;28;20195;-73
2022/04/17 04:15:10;;;;;;;16.83;10.90;;;;;;;9.25;100.00;61793.13;5092329;28;20195;-75
2022/04/17 04:17:38;;;;;;;14.63;10.33;;;;;;;9.33;100.00;61804.22;5092405;28;20710;-72
2022/04/17 04:20:07;;;;;;;15.20;10.40;;;;;;;9.42;100.00;61805.69;5092403;28;20876;-74
2022/04/17 04:22:35;;;;;;;12.67;9.77;;;;;;;9.41;100.00;61811.72;5092465;28;21061;-73
2022/04/17 04:25:01;;;;;;;12.50;9.37;;;;;;;9.34;100.00;61800.22;5092212;28;20206;-73
2022/04/17 04:30:14;;;;;;;14.33;10.60;;;;;;;9.43;100.00;61811.31;5092436;28;20588;-73
2022/04/17 04:32:52;;;;;;;13.20;9.87;;;;;;;9.40;100.00;61805.56;5092272;28;20195;-74
2022/04/17 04:35:18;;;;;;;14.17;10.17;;;;;;;9.35;100.00;61801.28;5091935;28;20266;-72
2022/04/17 04:37:45;;;;;;;13.50;9.73;;;;;;;9.31;100.00;61799.53;5092096;28;20256;-75
2022/04/17 04:40:13;;;;;;;15.27;9.67;;;;;;;9.20;100.00;61787.78;5092047;28;20282;-74
2022/04/17 04:42:41;;;;;;;14.47;11.60;;;;;;;9.15;100.00;61779.34;5091961;28;20217;-74
2022/04/17 04:47:53;;;;;;;15.80;10.13;;;;;;;9.01;100.00;61764.38;5091960;28;20311;-74
2022/04/17 04:50:20;;;;;;;12.23;9.27;;;;;;;9.10;100.00;61776.53;5091673;28;20191;-73
2022/04/17 04:52:47;;;;;;;12.77;9.50;;;;;;;9.10;100.00;61774.53;5091704;28;20446;-74
2022/04/17 04:55:13;;;;;;;10.87;8.63;;;;;;;9.04;100.00;61770.66;5091778;28;20835;-72
2022/04/17 04:57:41;;;;;;;12.90;8.73;;;;;;;9.05;100.00;61771.72;5092146;28;20265;-73
2022/04/17 05:00:09;;;;;;;10.37;8.60;;;;;;;9.08;100.00;61774.38;5091814;28;20196;-73
2022/04/17 05:02:37;;;;;;;13.23;9.10;;;;;;;9.27;100.00;61795.28;5091914;28;20442;-72
2022/04/17 05:05:05;;;;;;;9.93;8.20;;;;;;;9.22;100.00;61789.91;5091693;28;20445;-73
2022/04/17 05:07:32;;;;;;;11.70;8.70;;;;;;;9.23;100.00;61783.38;5091793;28;20280;-73
2022/04/17 05:10:00;;;;;;;11.00;7.63;;;;;;;9.21;100.00;61788.84;5091733;28;20195;-73
2022/04/17 05:12:27;;;;;;;10.93;7.97;;;;;;;9.22;100.00;61784.28;5091582;28;20449;-73
2022/04/17 05:14:56;;;;;;;11.93;7.70;;;;;;;9.19;100.00;61783.63;5091427;28;20434;-73
2022/04/17 05:17:23;;;;;;;10.63;7.30;;;;;;;9.24;100.00;61789.50;5091395;28;20285;-73
2022/04/17 05:19:50;;;;;;;10.60;7.47;;;;;;;9.26;100.00;61793.66;5091365;28;20581;-73
2022/04/17 05:22:17;;;;;;;11.17;7.70;;;;;;;9.45;100.00;61816.00;5091897;28;20276;-74
2022/04/17 05:24:45;;;;;;;9.70;7.50;;;;;;;8.84;100.00;61746.19;5091323;28;20681;-73
2022/04/17 05:27:12;;;;;;;10.07;8.03;;;;;;;9.12;100.00;61776.66;5091607;28;20227;-74
2022/04/17 05:29:40;;;;;;;9.13;7.40;;;;;;;9.41;100.00;61809.16;5091477;28;20291;-74
2022/04/17 05:32:09;;;;;;;9.53;7.20;;;;;;;9.33;100.00;61801.16;5091547;28;20195;-75
2022/04/17 05:34:36;;;;;;;8.63;7.00;;;;;;;9.41;100.00;61807.16;5091481;28;20239;-75
2022/04/17 05:37:04;;;;;;;9.57;7.30;;;;;;;9.41;100.00;61809.16;5091420;28;20233;-74
2022/04/17 05:39:31;;;;;;;11.07;6.93;;;;;;;9.38;100.00;61807.03;5091331;28;20290;-74
2022/04/17 05:41:59;;;;;;;9.67;7.30;;;;;;;9.20;100.00;61790.31;5091175;28;20210;-75
2022/04/17 05:44:26;;;;;;;9.57;7.30;;;;;;;9.40;100.00;61806.09;5091262;28;20200;-73
2022/04/17 05:46:53;;;;;;;9.07;7.30;;;;;;;9.38;100.00;61803.44;5091478;28;20721;-73
2022/04/17 05:49:22;;;;;;;10.00;7.03;;;;;;;8.96;100.00;61759.56;5095219;28;20286;-74
2022/04/17 05:51:49;;;;;;;10.50;6.53;;;;;;;9.40;100.00;61803.03;5094117;28;20200;-73
2022/04/17 05:54:16;;;;;;;8.43;6.87;;;;;;;9.35;100.00;61798.75;5096423;28;20701;-73
2022/04/17 05:56:43;;;;;;;11.33;7.77;;;;;;;9.28;100.00;61790.69;5091746;28;20748;-73
2022/04/17 05:59:10;;;;;;;10.93;7.30;;;;;;;9.28;100.00;61793.78;5093682;28;20446;-74
2022/04/17 06:01:38;;;;;;;11.10;7.63;;;;;;;9.14;100.00;61783.34;5091721;28;20204;-74
2022/04/17 06:04:06;;;;;;;9.97;7.23;;;;;;;9.27;100.00;61797.81;5091430;28;20203;-74
2022/04/17 06:06:34;;;;;;;9.90;7.57;;;;;;;9.30;100.00;61797.94;5091340;28;20200;-73
2022/04/17 06:09:02;;;;;;;9.90;6.90;;;;;;;9.28;100.00;61793.25;5091085;28;20250;-73
2022/04/17 06:11:29;;;;;;;9.07;7.00;;;;;;;9.11;100.00;61775.59;5090722;28;20450;-74
2022/04/17 06:13:56;;;;;;;11.50;7.67;;;;;;;9.33;100.00;61798.59;5091126;28;20450;-74
2022/04/17 06:16:23;;;;;;;9.07;7.13;;;;;;;9.19;100.00;61784.16;5091012;28;20220;-74
2022/04/17 06:18:50;;;;;;;9.87;7.30;;;;;;;9.22;100.00;61789.38;5091616;28;20456;-74
2022/04/17 06:21:18;;;;;;;10.10;7.60;;;;;;;9.30;100.00;61797.94;5094740;28;20685;-72
2022/04/17 06:23:46;;;;;;;10.27;6.87;;;;;;;9.20;100.00;61785.22;5094685;28;20524;-74
2022/04/17 06:26:13;;;;;;;9.10;7.50;;;;;;;9.25;100.00;61790.59;5094626;28;20450;-74
2022/04/17 06:28:39;;;;;;;10.53;7.90;;;;;;;9.31;100.00;61797.00;5094421;28;20227;-73
2022/04/17 06:31:07;;;;;;;12.63;8.83;;;;;;;9.38;100.00;61803.44;5094524;28;20441;-73
2022/04/17 06:33:35;;;;;;;12.87;8.97;;;;;;;9.34;100.00;61802.75;5094418;28;20449;-74
2022/04/17 06:36:02;;;;;;;9.70;7.40;;;;;;;8.30;100.00;61689.00;5094396;28;20655;-73
2022/04/17 06:38:29;;;;;;;12.73;7.57;;;;;;;9.53;100.00;61820.00;5094213;28;20450;-73
2022/04/17 06:40:57;;;;;;;12.00;8.23;;;;;;;9.60;100.00;61829.50;5094094;28;20222;-72
2022/04/17 06:43:24;;;;;;;9.77;7.13;;;;;;;9.55;100.00;61822.16;5094554;28;20312;-75
2022/04/17 06:45:51;;;;;;;9.30;7.30;;;;;;;9.62;100.00;61832.16;5094407;28;20200;-74
2022/04/17 06:48:20;;;;;;;8.50;6.13;;;;;;;9.59;100.00;61825.88;5094154;28;20227;-72
2022/04/17 06:50:49;;;;;;;8.40;6.47;;;;;;;9.42;100.00;61805.16;5094275;28;20635;-76
2022/04/17 06:53:16;;;;;;;8.43;6.50;;;;;;;9.59;100.00;61820.81;5094137;28;20237;-73
2022/04/17 06:55:43;;;;;;;9.37;6.50;;;;;;;9.46;100.00;61811.97;5093771;28;20196;-73
2022/04/17 06:58:14;;;;;;;10.40;7.20;;;;;;;9.02;100.00;61763.44;5093966;28;20298;-73
2022/04/17 07:00:41;;;;;;;7.10;6.27;;;;;;;9.82;100.00;61850.50;5094248;28;20203;-72
2022/04/17 07:03:08;;;;;;;8.87;6.30;;;;;;;9.87;100.00;61856.41;5094048;28;20196;-73
2022/04/17 07:05:36;;;;;;;13.13;9.10;;;;;;;10.01;100.00;61870.84;5093892;28;20688;-73
2022/04/17 07:08:05;;;;;;;8.80;7.37;;;;;;;9.64;100.00;61831.75;5093653;28;20227;-73
2022/04/17 07:10:38;;;;;;;9.40;6.83;;;;;;;8.97;100.00;61763.19;5093882;28;20199;-74
2022/04/17 07:13:04;;;;;;;8.50;6.83;;;;;;;9.82;100.00;61850.50;5093922;28;20202;-74
2022/04/17 07:15:33;;;;;;;10.97;6.37;;;;;;;9.76;100.00;61846.63;5093548;28;20195;-73
2022/04/17 07:18:00;;;;;;;8.37;6.67;;;;;;;9.81;100.00;61852.53;5093680;28;20211;-74
2022/04/17 07:20:27;;;;;;;11.10;7.90;;;;;;;9.92;100.00;61861.22;5093713;28;20257;-74
2022/04/17 07:22:55;;;;;;;9.60;7.87;;;;;;;9.87;100.00;61858.94;5093374;28;20195;-75
2022/04/17 07:25:22;;;;;;;10.10;7.60;;;;;;;9.74;100.00;61841.94;5093975;28;20574;-73
2022/04/17 07:27:51;;;;;;;8.23;6.50;;;;;;;9.66;100.00;61835.94;5093197;28;20227;-75
2022/04/17 07:30:19;;;;;;;7.03;6.13;;;;;;;9.65;100.00;61832.84;5092975;28;20247;-75
2022/04/17 07:32:49;;;;;;;10.07;7.43;;;;;;;9.76;100.00;61846.63;5092697;28;20200;-74
2022/04/17 07:35:18;;;;;;;8.63;7.60;;;;;;;9.80;100.00;61848.91;5093467;28;20239;-74
2022/04/17 07:37:50;;;;;;;8.13;6.60;;;;;;;9.85;100.00;61856.25;5094915;28;20676;-74
2022/04/17 07:40:21;;;;;;;8.97;6.80;;;;;;;9.92;100.00;61866.31;5105673;28;20199;-73
2022/04/17 07:42:49;;;;;;;8.17;5.53;;;;;;;9.70;100.00;61838.19;5093213;28;20291;-74
2022/04/17 07:45:17;;;;;;;8.63;6.30;;;;;;;8.97;100.00;61760.63;5093346;28;20206;-74
2022/04/17 07:47:44;;;;;;;8.70;6.23;;;;;;;9.86;100.00;61857.34;5091582;28;20322;-75
2022/04/17 07:50:14;;;;;;;8.80;6.17;;;;;;;9.64;100.00;61836.84;5093120;28;20503;-74
2022/04/17 07:52:42;;;;;;;11.67;7.00;;;;;;;9.85;100.00;61853.72;5092970;27;20631;-73
2022/04/17 07:55:11;;;;;;;8.67;6.00;;;;;;;9.68;100.00;61835.53;5092750;28;20295;-74
2022/04/17 07:58:01;;;;;;;6.47;5.53;;;;;;;10.12;100.00;61883.19;5092896;28;20231;-73
2022/04/17 08:00:31;;;;;;;7.40;5.70;;;;;;;10.24;100.00;61900.59;5092934;28;20196;-74
2022/04/17 08:03:09;;;;;;;7.17;5.27;;;;;;;9.70;100.00;61840.22;5093136;28;20202;-73
2022/04/17 08:05:38;;;;;;;6.17;5.00;;;;;;;10.38;100.00;61910.50;5093477;28;20195;-72
2022/04/17 08:08:08;;;;;;;5.83;5.00;;;;;;;10.51;100.00;61921.31;5093026;28;20304;-74
2022/04/17 08:10:35;;;;;;;7.47;5.77;;;;;;;10.33;100.00;61905.13;5092554;28;20283;-73
2022/04/17 08:13:04;;;;;;;7.67;6.07;;;;;;;10.57;100.00;61935.94;5092687;28;20217;-73
2022/04/17 08:15:30;;;;;;;16.77;10.97;;;;;;;9.75;100.00;61840.47;5092746;28;20674;-74
2022/04/17 08:17:57;;;;;;;6.20;5.27;;;;;;;10.40;100.00;61912.63;5092269;28;20200;-74
2022/04/17 08:20:26;;;;;;;10.57;8.00;;;;;;;10.43;100.00;61912.75;5092262;28;20249;-75
2022/04/17 08:22:54;;;;;;;9.17;6.70;;;;;;;9.71;100.00;61844.34;5092124;28;20192;-73
2022/04/17 08:25:21;;;;;;;6.47;5.60;;;;;;;10.41;100.00;61913.69;5092161;28;20199;-74
2022/04/17 08:27:49;;;;;;;8.17;5.77;;;;;;;10.48;100.00;61920.66;5092133;28;20220;-74
2022/04/17 08:30:20;;;;;;;6.43;5.73;;;;;;;10.41;100.00;61913.69;5092134;28;20575;-72
2022/04/17 08:32:47;;;;;;;6.23;4.87;;;;;;;10.41;100.00;61913.16;5092152;28;20199;-73
2022/04/17 08:35:14;;;;;;;15.23;11.10;;;;;;;10.55;100.00;61931.25;5092678;28;20235;-75
2022/04/17 08:37:41;;;;;;;6.77;5.87;;;;;;;10.61;100.00;61937.66;5092482;28;20588;-74
2022/04/17 08:40:11;;;;;;;8.17;5.63;;;;;;;10.78;100.00;61953.34;5091893;28;20199;-73
2022/04/17 08:42:39;;;;;;;7.80;5.80;;;;;;;10.73;100.00;61950.53;5092223;28;20245;-72
2022/04/17 08:45:09;;;;;;;7.03;4.97;;;;;;;10.65;100.00;61938.88;5092208;28;20282;-73
2022/04/17 08:47:37;;;;;;;5.53;4.70;;;;;;;10.51;100.00;61923.88;5091950;28;20206;-73
2022/04/17 08:50:07;;;;;;;6.97;5.00;;;;;;;10.54;100.00;61932.72;5092084;28;20252;-72
2022/04/17 08:52:34;;;;;;;6.70;4.90;;;;;;;10.61;100.00;61932.03;5092072;28;20629;-73
2022/04/17 08:55:02;;;;;;;8.43;6.37;;;;;;;10.70;100.00;61942.22;5091782;28;20203;-74
2022/04/17 08:57:31;;;;;;;8.77;5.67;;;;;;;10.76;100.00;61956.31;5091582;28;20257;-73
2022/04/17 09:00:00;;;;;;;9.37;6.57;;;;;;;10.61;100.00;61935.13;5091568;28;20196;-72
2022/04/17 09:02:26;;;;;;;7.23;5.70;;;;;;;10.75;100.00;61954.69;5091869;28;20616;-73
2022/04/17 09:04:53;;;;;;;8.57;5.60;;;;;;;10.87;100.00;61965.53;5091321;28;20203;-73
2022/04/17 09:07:20;;;;;;;8.83;6.20;;;;;;;11.04;100.00;61980.66;5091430;28;20248;-74
2022/04/17 09:09:51;;;;;;;6.93;5.20;;;;;;;11.04;100.00;61976.13;5091082;28;20235;-73
2022/04/17 09:12:22;;;;;;;8.57;5.53;;;;;;;11.04;100.00;61980.66;5091448;28;20199;-74
2022/04/17 09:14:50;;;;;;;6.13;4.60;;;;;;;10.98;100.00;61969.69;5091258;28;20200;-73
2022/04/17 09:17:18;;;;;;;5.43;4.53;;;;;;;11.12;100.00;61993.81;5091299;28;20215;-74
2022/04/17 09:19:45;;;;;;;7.53;5.77;;;;;;;10.96;100.00;61972.63;5091505;28;20688;-74
2022/04/17 09:22:12;;;;;;;9.17;5.10;;;;;;;11.33;100.00;62011.22;5091521;28;20723;-74
2022/04/17 09:24:41;;;;;;;6.73;5.10;;;;;;;10.66;100.00;61943.03;5098411;28;20191;-73
2022/04/17 09:27:10;;;;;;;5.67;5.00;;;;;;;10.50;100.00;61920.81;5091476;28;20294;-73
2022/04/17 09:29:39;;;;;;;9.20;6.13;;;;;;;11.36;100.00;62014.44;5092009;28;20227;-73
2022/04/17 09:32:08;;;;;;;4.80;4.30;;;;;;;10.79;100.00;61954.41;5092197;28;20195;-73
2022/04/17 09:34:46;;;;;;;5.87;4.33;;;;;;;11.45;100.00;62019.50;5091459;28;20292;-74
2022/04/17 09:37:15;;;;;;;4.83;4.20;;;;;;;11.58;100.00;62038.56;5091280;28;20646;-73
2022/04/17 09:39:43;;;;;;;7.30;4.87;;;;;;;11.57;100.00;62036.97;5090991;28;20666;-73
2022/04/17 09:42:11;;;;;;;6.53;4.80;;;;;;;11.69;100.00;62052.41;5091109;28;20231;-73
2022/04/17 09:44:45;;;;;;;10.97;7.53;;;;;;;10.90;100.00;61968.75;5091337;28;20200;-74
2022/04/17 09:47:16;;;;;;;6.77;5.13;;;;;;;11.64;100.00;62044.47;5091396;28;20211;-73
2022/04/17 09:49:54;;;;;;;8.23;5.23;;;;;;;11.62;100.00;62039.75;5091313;28;20284;-73
2022/04/17 09:52:22;;;;;;;6.27;5.10;;;;;;;11.37;100.00;62015.50;5091166;28;20231;-74
2022/04/17 09:54:50;;;;;;;7.53;5.63;;;;;;;11.28;100.00;62008.41;5093084;28;20265;-74
2022/04/17 09:57:30;;;;;;;6.37;5.40;;;;;;;11.28;100.00;62005.84;5094978;28;20311;-74
2022/04/17 09:59:58;;;;;;;9.17;6.30;;;;;;;10.93;100.00;61974.50;5095011;28;20217;-74
2022/04/17 10:02:26;;;;;;;9.33;6.63;;;;;;;11.40;100.00;62013.63;5094908;28;20673;-73
2022/04/17 10:04:53;;;;;;;8.97;6.27;;;;;;;10.84;100.00;61962.31;5094691;28;20666;-74
2022/04/17 10:07:23;;;;;;;5.33;4.20;;;;;;;11.18;100.00;61997.69;5094679;28;20222;-73
2022/04/17 10:09:51;;;;;;;3.77;2.87;;;;;;;10.76;100.00;61951.22;5094699;28;20235;-73
2022/04/17 10:12:21;;;;;;;3.20;2.50;;;;;;;10.35;100.00;61907.28;5096698;28;20241;-72
2022/04/17 10:14:50;;;;;;;2.30;1.00;;;;;;;10.42;100.00;61917.31;5095290;28;20674;-74
2022/04/17 10:17:19;;;;;;;0.97;0.90;;;;;;;10.60;100.00;61936.63;5094589;28;20226;-74
2022/04/17 10:19:55;;;;;;;0.73;0.73;;;;;;;10.64;100.00;61938.34;5094509;28;20707;-72
2022/04/17 10:22:29;;;;;;;2.50;0.80;;;;;;;10.69;100.00;61943.69;5094641;28;20196;-72
2022/04/17 10:24:59;;;;;;;1.47;0.70;;;;;;;10.97;100.00;61973.69;5094483;28;20709;-73
2022/04/17 10:27:31;;;;;;;1.07;0.87;;;;;;;11.01;100.00;61972.88;5094823;28;20202;-74
2022/04/17 10:30:03;;;;;;;0.60;0.60;;;;;;;11.11;100.00;61990.19;5094431;28;20296;-73
2022/04/17 10:33:09;;;;;;;0.90;0.80;;;;;;;10.63;100.00;61934.72;5094680;28;20226;-73
2022/04/17 10:36:00;;;;;;;2.50;0.90;;;;;;;9.94;100.00;61863.88;5094514;28;20235;-73
2022/04/17 10:38:27;;;;;;;0.40;0.40;;;;;;;10.13;100.00;61889.34;5093464;28;20647;-72
2022/04/17 10:40:56;;;;;;;1.63;0.90;;;;;;;9.64;100.00;61836.84;5094382;28;20199;-74
2022/04/17 10:43:24;;;;;;;1.70;1.30;;;;;;;10.36;100.00;61907.81;5094570;28;20196;-74
2022/04/17 10:46:10;;;;;;;2.70;1.20;;;;;;;9.56;100.00;61822.69;5094190;28;20252;-74
2022/04/17 10:48:48;;;;;;;0.70;0.67;;;;;;;10.12;100.00;61882.66;5093866;28;20273;-74
2022/04/17 10:51:20;;;;;;;2.63;0.50;;;;;;;9.66;100.00;61833.38;5094481;28;20195;-74
2022/04/17 10:54:07;;;;;;;1.00;0.60;;;;;;;10.09;100.00;61879.41;5094006;28;20219;-75
2022/04/17 10:56:38;;;;;;;1.83;1.00;;;;;;;10.25;100.00;61896.56;5091660;28;20468;-75
2022/04/17 10:59:16;;;;;;;2.87;1.00;;;;;;;10.22;100.00;61895.91;5092828;28;20199;-73
2022/04/17 11:01:54;;;;;;;1.43;1.00;;;;;;;10.43;100.00;61915.84;5094332;28;20256;-74
2022/04/17 11:04:24;;;;;;;3.57;1.97;;;;;;;10.52;100.00;61925.50;5093897;28;20221;-74
2022/04/17 11:07:22;;;;;;;0.80;0.80;;;;;;;10.29;100.00;61900.84;5093902;28;20278;-74
2022/04/17 11:10:04;;;;;;;0.57;0.57;;;;;;;10.35;100.00;61907.28;5086741;28;20238;-73
2022/04/17 11:12:31;;;;;;;1.40;0.83;;;;;;;10.46;100.00;61918.53;5093171;28;20195;-74
2022/04/17 11:15:22;;;;;;;1.10;1.00;;;;;;;10.45;100.00;61915.44;5093129;28;20202;-74
2022/04/17 11:17:50;;;;;;;0.80;0.80;;;;;;;10.42;100.00;61914.25;5092974;28;20298;-75
2022/04/17 11:20:17;;;;;;;0.40;0.40;;;;;;;10.28;100.00;61902.34;5092986;28;20297;-73
2022/04/17 11:22:46;;;;;;;0.70;0.57;;;;;;;10.63;100.00;61937.25;5092997;28;20550;-74
2022/04/17 11:25:14;;;;;;;1.60;0.80;;;;;;;10.52;100.00;61920.41;5092900;28;20636;-74
2022/04/17 11:27:45;;;;;;;1.83;0.80;;;;;;;10.31;100.00;61905.53;5092882;28;20211;-73
2022/04/17 11:30:34;;;;;;;0.87;0.80;;;;;;;10.31;100.00;61903.00;5093347;28;20231;-73
2022/04/17 11:33:04;;;;;;;1.30;0.60;;;;;;;10.39;100.00;61911.56;5093302;28;20200;-75
2022/04/17 11:35:31;;;;;;;1.63;0.60;;;;;;;10.07;100.00;61874.72;5093062;28;20242;-74
2022/04/17 11:38:02;;;;;;;0.70;0.70;;;;;;;9.97;100.00;61867.09;5093215;28;20581;-74
2022/04/17 11:40:33;;;;;;;5.73;0.50;;;;;;;9.92;100.00;61861.75;5093433;28;20195;-75
2022/04/17 11:43:10;;;;;;;0.57;0.57;;;;;;;10.01;100.00;61870.84;5093112;28;20195;-75
2022/04/17 11:45:38;;;;;;;0.40;0.40;;;;;;;9.20;100.00;61785.22;5093495;28;20268;-74